Time,TemperatureF,DewpointF,PressureIn,WindDirection,WindDirectionDegrees,WindSpeedMPH,WindSpeedGustMPH,Humidity,HourlyPrecipIn,Conditions,Clouds,dailyrainin,SoftwareType,DateUTC
2013-08-05 00:01:00,69.8,65.0,30.04,ESE,107,1.0,4.0,85,0.00,,,0.00,weatherlink.com 1.10,2013-08-05 05:01:00,
2013-08-05 00:16:00,69.4,65.0,30.04,ESE,107,2.0,3.0,86,0.00,,,0.00,weatherlink.com 1.10,2013-08-05 05:16:00,
2013-08-05 00:31:00,69.4,65.0,30.04,ESE,123,1.0,5.0,85,0.00,,,0.00,weatherlink.com 1.10,2013-08-05 05:31:00,
2013-08-05 00:46:00,69.2,65.0,30.04,ESE,115,3.0,4.0,85,0.00,,,0.00,weatherlink.com 1.10,2013-08-05 05:46:00,
2013-08-05 01:01:00,69.1,65.0,30.03,SE,128,3.0,4.0,85,0.00,,,0.00,weatherlink.com 1.10,2013-08-05 06:01:00,
2013-08-05 01:16:00,69.3,64.0,30.03,SSE,163,1.0,5.0,84,0.00,,,0.00,weatherlink.com 1.10,2013-08-05 06:16:00,
2013-08-05 01:31:00,69.2,64.0,30.02,SE,126,0.0,5.0,84,0.00,,,0.00,weatherlink.com 1.10,2013-08-05 06:31:00,
2013-08-05 01:46:00,68.9,64.0,30.02,ESE,109,1.0,4.0,85,0.00,,,0.00,weatherlink.com 1.10,2013-08-05 06:46:00,
2013-08-05 02:01:00,68.8,65.0,30.02,SE,128,4.0,5.0,86,0.00,,,0.00,weatherlink.com 1.10,2013-08-05 07:01:00,
2013-08-05 02:16:00,68.4,64.0,30.01,ESE,107,0.0,4.0,87,0.00,,,0.00,weatherlink.com 1.10,2013-08-05 07:16:00,
2013-08-05 02:31:00,68.3,64.0,30.01,ESE,109,0.0,2.0,87,0.00,,,0.00,weatherlink.com 1.10,2013-08-05 07:31:00,
2013-08-05 03:16:00,67.9,65.0,30.00,East,101,1.0,2.0,89,0.00,,,0.00,weatherlink.com 1.10,2013-08-05 08:16:00,
2013-08-05 03:31:00,68.2,65.0,30.00,SSE,153,2.0,4.0,88,0.00,,,0.00,weatherlink.com 1.10,2013-08-05 08:31:00,
2013-08-05 03:46:00,68.3,65.0,29.98,SSE,150,3.0,5.0,88,0.00,,,0.00,weatherlink.com 1.10,2013-08-05 08:46:00,
2013-08-05 05:16:00,68.7,67.0,29.98,SE,130,1.0,5.0,93,0.00,,,0.00,weatherlink.com 1.10,2013-08-05 10:16:00,
2013-08-05 05:46:00,68.4,66.0,29.98,SE,134,1.0,1.0,92,0.00,,,0.00,weatherlink.com 1.10,2013-08-05 10:46:00,
2013-08-05 06:01:00,68.2,66.0,29.98,ESE,115,1.0,2.0,93,0.00,,,0.00,weatherlink.com 1.10,2013-08-05 11:01:00,
2013-08-05 06:16:00,68.0,66.0,29.97,ESE,115,0.0,1.0,93,0.00,,,0.00,weatherlink.com 1.10,2013-08-05 11:16:00,
2013-08-05 06:31:00,67.9,66.0,29.97,ESE,115,0.0,1.0,93,0.00,,,0.00,weatherlink.com 1.10,2013-08-05 11:31:00,
2013-08-05 07:01:00,67.8,66.0,29.98,ESE,114,0.0,2.0,94,0.00,,,0.00,weatherlink.com 1.10,2013-08-05 12:01:00,
2013-08-05 07:16:00,67.8,66.0,29.97,ESE,116,0.0,3.0,94,0.00,,,0.00,weatherlink.com 1.10,2013-08-05 12:16:00,
2013-08-05 07:31:00,67.8,66.0,29.97,ESE,118,0.0,2.0,94,0.00,,,0.00,weatherlink.com 1.10,2013-08-05 12:31:00,
2013-08-05 07:46:00,67.9,66.0,29.97,ESE,115,0.0,2.0,94,0.00,,,0.00,weatherlink.com 1.10,2013-08-05 12:46:00,
2013-08-05 08:01:00,68.2,67.0,29.97,SSE,161,4.0,6.0,94,0.00,,,0.00,weatherlink.com 1.10,2013-08-05 13:01:00,
2013-08-05 08:16:00,68.7,67.0,29.96,SE,146,7.0,9.0,93,0.00,,,0.00,weatherlink.com 1.10,2013-08-05 13:16:00,
2013-08-05 08:32:00,69.1,67.0,29.96,SSW,194,5.0,8.0,93,0.00,,,0.00,weatherlink.com 1.10,2013-08-05 13:32:00,
2013-08-05 08:47:00,69.5,68.0,29.96,SSE,156,4.0,8.0,93,0.00,,,0.00,weatherlink.com 1.10,2013-08-05 13:47:00,
2013-08-05 09:02:00,70.0,68.0,29.96,South,178,3.0,7.0,92,0.00,,,0.00,weatherlink.com 1.10,2013-08-05 14:02:00,
2013-08-05 09:32:00,70.4,67.0,29.96,South,177,6.0,11.0,90,0.00,,,0.00,weatherlink.com 1.10,2013-08-05 14:32:00,
2013-08-05 09:46:00,70.4,67.0,29.95,SSE,165,10.0,14.0,90,0.00,,,0.00,weatherlink.com 1.10,2013-08-05 14:46:00,
2013-08-05 10:02:00,70.7,68.0,29.94,South,169,7.0,15.0,90,0.00,,,0.00,weatherlink.com 1.10,2013-08-05 15:02:00,
2013-08-05 10:16:00,71.0,68.0,29.95,SSE,167,12.0,17.0,89,0.00,,,0.00,weatherlink.com 1.10,2013-08-05 15:16:00,
2013-08-05 10:32:00,71.1,68.0,29.94,South,191,9.0,16.0,90,0.00,,,0.00,weatherlink.com 1.10,2013-08-05 15:32:00,
2013-08-05 10:47:00,71.9,68.0,29.93,SSW,196,9.0,14.0,88,0.00,,,0.00,weatherlink.com 1.10,2013-08-05 15:47:00,
2013-08-05 11:02:00,72.3,68.0,29.93,South,174,9.0,15.0,87,0.00,,,0.00,weatherlink.com 1.10,2013-08-05 16:02:00,
2013-08-05 11:17:00,72.4,68.0,29.93,SSW,192,7.0,18.0,87,0.00,,,0.00,weatherlink.com 1.10,2013-08-05 16:17:00,
2013-08-05 11:32:00,72.4,68.0,29.93,SSE,167,13.0,16.0,87,0.00,,,0.00,weatherlink.com 1.10,2013-08-05 16:32:00,
2013-08-05 11:47:00,72.8,68.0,29.93,SSE,164,9.0,14.0,86,0.00,,,0.00,weatherlink.com 1.10,2013-08-05 16:47:00,
2013-08-05 12:02:00,72.9,69.0,29.92,SSW,207,3.0,11.0,86,0.00,,,0.00,weatherlink.com 1.10,2013-08-05 17:02:00,
2013-08-05 12:17:00,73.0,69.0,29.92,South,173,4.0,11.0,87,0.00,,,0.00,weatherlink.com 1.10,2013-08-05 17:17:00,
2013-08-05 12:32:00,74.1,70.0,29.92,SSE,162,8.0,9.0,86,0.00,,,0.00,weatherlink.com 1.10,2013-08-05 17:32:00,
2013-08-05 12:47:00,76.2,71.0,29.91,SE,137,8.0,9.0,83,0.00,,,0.00,weatherlink.com 1.10,2013-08-05 17:47:00,
2013-08-05 13:02:00,76.7,71.0,29.91,SSE,165,4.0,11.0,82,0.00,,,0.00,weatherlink.com 1.10,2013-08-05 18:02:00,
2013-08-05 13:17:00,76.8,71.0,29.90,SSE,156,5.0,10.0,82,0.00,,,0.00,weatherlink.com 1.10,2013-08-05 18:17:00,
2013-08-05 13:32:00,77.3,71.0,29.91,SE,134,0.0,10.0,81,0.00,,,0.00,weatherlink.com 1.10,2013-08-05 18:32:00,
2013-08-05 13:47:00,76.8,71.0,29.91,ESE,113,3.0,8.0,82,0.00,,,0.00,weatherlink.com 1.10,2013-08-05 18:47:00,
2013-08-05 14:17:00,77.1,71.0,29.90,SE,140,3.0,6.0,82,0.00,,,0.00,weatherlink.com 1.10,2013-08-05 19:17:00,
2013-08-05 14:32:00,77.7,72.0,29.90,SSE,162,4.0,7.0,82,0.00,,,0.00,weatherlink.com 1.10,2013-08-05 19:32:00,
2013-08-05 15:17:00,79.1,73.0,29.88,SSE,162,1.0,6.0,81,0.00,,,0.00,weatherlink.com 1.10,2013-08-05 20:17:00,
2013-08-05 15:32:00,79.1,73.0,29.87,SSW,194,0.0,7.0,81,0.00,,,0.00,weatherlink.com 1.10,2013-08-05 20:32:00,
2013-08-05 15:47:00,80.1,73.0,29.86,NE,41,2.0,5.0,80,0.00,,,0.00,weatherlink.com 1.10,2013-08-05 20:47:00,
2013-08-05 16:18:00,79.0,73.0,29.86,NE,52,3.0,4.0,82,0.00,,,0.00,weatherlink.com 1.10,2013-08-05 21:18:00,
2013-08-05 16:48:00,78.6,73.0,29.85,ENE,61,3.0,6.0,83,0.00,,,0.00,weatherlink.com 1.10,2013-08-05 21:48:00,
2013-08-05 17:18:00,79.7,73.0,29.83,ENE,62,8.0,8.0,81,0.00,,,0.00,weatherlink.com 1.10,2013-08-05 22:18:00,
2013-08-05 17:48:00,80.3,74.0,29.84,SE,125,6.0,10.0,80,0.00,,,0.00,weatherlink.com 1.10,2013-08-05 22:48:00,
2013-08-05 18:03:00,79.3,73.0,29.83,ESE,122,2.0,8.0,82,0.00,,,0.00,weatherlink.com 1.10,2013-08-05 23:03:00,
2013-08-05 18:18:00,79.2,73.0,29.82,ENE,63,2.0,8.0,82,0.00,,,0.00,weatherlink.com 1.10,2013-08-05 23:18:00,
2013-08-05 18:33:00,78.7,73.0,29.81,ESE,119,4.0,8.0,83,0.00,,,0.00,weatherlink.com 1.10,2013-08-05 23:33:00,
2013-08-05 19:03:00,78.5,73.0,29.81,SE,125,3.0,8.0,83,0.00,,,0.00,weatherlink.com 1.10,2013-08-06 00:03:00,
2013-08-05 19:18:00,78.1,73.0,29.81,ESE,105,2.0,5.0,84,0.00,,,0.00,weatherlink.com 1.10,2013-08-06 00:18:00,
2013-08-05 20:03:00,76.5,72.0,29.81,SSE,162,6.0,9.0,87,0.00,,,0.00,weatherlink.com 1.10,2013-08-06 01:03:00,
2013-08-05 20:33:00,74.9,72.0,29.83,SE,131,1.0,1.0,89,0.00,,,0.00,weatherlink.com 1.10,2013-08-06 01:33:00,
2013-08-05 20:48:00,74.1,71.0,29.83,ESE,123,3.0,4.0,90,0.00,,,0.00,weatherlink.com 1.10,2013-08-06 01:48:00,
2013-08-05 21:03:00,73.7,71.0,29.83,ESE,113,4.0,6.0,91,0.00,,,0.00,weatherlink.com 1.10,2013-08-06 02:03:00,
2013-08-05 21:18:00,73.3,71.0,29.84,ENE,78,1.0,3.0,91,0.00,,,0.00,weatherlink.com 1.10,2013-08-06 02:18:00,
2013-08-05 21:33:00,72.7,70.0,29.85,NE,53,4.0,4.0,92,0.00,,,0.00,weatherlink.com 1.10,2013-08-06 02:33:00,
2013-08-05 21:48:00,72.4,70.0,29.85,NNE,31,2.0,5.0,93,0.00,,,0.00,weatherlink.com 1.10,2013-08-06 02:48:00,
2013-08-05 22:03:00,72.2,70.0,29.85,NE,46,2.0,5.0,93,0.00,,,0.00,weatherlink.com 1.10,2013-08-06 03:03:00,
2013-08-05 22:18:00,72.0,70.0,29.85,ENE,65,3.0,5.0,93,0.00,,,0.00,weatherlink.com 1.10,2013-08-06 03:18:00,
2013-08-05 22:33:00,71.7,70.0,29.84,East,96,2.0,5.0,93,0.00,,,0.00,weatherlink.com 1.10,2013-08-06 03:33:00,
2013-08-05 22:48:00,71.3,70.0,29.84,East,88,2.0,3.0,94,0.00,,,0.00,weatherlink.com 1.10,2013-08-06 03:48:00,
2013-08-05 23:03:00,71.0,69.0,29.84,East,88,2.0,2.0,94,0.00,,,0.00,weatherlink.com 1.10,2013-08-06 04:03:00,
2013-08-05 23:18:00,70.7,69.0,29.85,NE,51,3.0,4.0,94,0.00,,,0.00,weatherlink.com 1.10,2013-08-06 04:18:00,
2013-08-05 23:33:00,70.4,69.0,29.85,NE,38,1.0,4.0,95,0.00,,,0.00,weatherlink.com 1.10,2013-08-06 04:33:00,
2013-08-05 23:48:00,70.2,69.0,29.85,ENE,62,4.0,4.0,95,0.00,,,0.00,weatherlink.com 1.10,2013-08-06 04:48:00,